Time;durP1;ratioP1;P1;durP2;ratioP2;P2;SDS_P1;SDS_P2;PMS_P1;PMS_P2;Temp;Humidity;BMP_temperature;BMP_pressure;BME280_temperature;BME280_humidity;BME280_pressure;Samples;Min_cycle;Max_cycle;Signal;HPM_P1;HPM_P2
2023/08/18 00:00:07;;;;;;;2.22;0.70;;;16.70;99.90;;;;;;4784400;29;20121;-91
2023/08/18 00:02:33;;;;;;;1.50;0.80;;;16.60;99.90;;;;;;4825228;29;20050;-93
2023/08/18 00:04:59;;;;;;;2.35;1.10;;;16.60;99.90;;;;;;4812047;29;20501;-94
2023/08/18 00:07:25;;;;;;;1.77;0.90;;;16.60;99.90;;;;;;4836247;29;20119;-94
2023/08/18 00:09:51;;;;;;;1.33;0.98;;;16.60;99.90;;;;;;4830895;29;20041;-92
2023/08/18 00:12:17;;;;;;;1.65;1.10;;;16.50;99.90;;;;;;4842128;29;20042;-92
2023/08/18 00:14:42;;;;;;;1.70;1.00;;;16.50;99.90;;;;;;4828051;29;20041;-93
2023/08/18 00:17:09;;;;;;;2.30;1.00;;;16.50;99.90;;;;;;4830946;29;20048;-91
2023/08/18 00:19:35;;;;;;;2.42;1.40;;;16.40;99.90;;;;;;4797194;29;20084;-92
2023/08/18 00:22:01;;;;;;;1.42;1.00;;;16.40;99.90;;;;;;4810160;29;20073;-91
2023/08/18 00:24:27;;;;;;;2.22;0.98;;;16.30;99.90;;;;;;4813040;29;20046;-95
2023/08/18 00:26:53;;;;;;;3.97;1.15;;;16.30;99.90;;;;;;4815439;29;20489;-91
2023/08/18 00:29:18;;;;;;;1.13;1.00;;;16.30;99.90;;;;;;4808667;29;20045;-93
2023/08/18 00:31:45;;;;;;;1.02;0.90;;;16.30;99.90;;;;;;4825409;29;20051;-92
2023/08/18 00:34:11;;;;;;;3.63;1.20;;;16.20;99.90;;;;;;4815171;29;20054;-93
2023/08/18 00:36:37;;;;;;;1.00;0.80;;;16.20;99.90;;;;;;4815284;29;20053;-91
2023/08/18 00:39:03;;;;;;;3.03;1.10;;;16.20;99.90;;;;;;4830081;29;20132;-95
2023/08/18 00:41:29;;;;;;;1.33;1.00;;;16.20;99.90;;;;;;4826958;29;20037;-92
2023/08/18 00:43:55;;;;;;;1.52;1.08;;;16.20;99.90;;;;;;4826861;29;20073;-92
2023/08/18 00:46:21;;;;;;;2.30;1.13;;;16.20;99.90;;;;;;4814896;29;20053;-91
2023/08/18 00:48:48;;;;;;;1.87;0.87;;;16.30;99.90;;;;;;4803971;29;20099;-91
2023/08/18 00:51:14;;;;;;;;;;;16.30;99.90;;;;;;4835094;29;20077;-93
2023/08/18 00:53:41;;;;;;;1.45;1.08;;;16.30;99.90;;;;;;4814435;29;19971;-90
2023/08/18 00:56:10;;;;;;;1.63;1.10;;;16.30;99.90;;;;;;4807240;29;20045;-89
2023/08/18 00:58:36;;;;;;;2.63;1.10;;;16.30;99.90;;;;;;4822963;29;20042;-87
2023/08/18 01:01:03;;;;;;;1.95;1.00;;;16.30;99.90;;;;;;4816383;29;20102;-86
2023/08/18 01:03:30;;;;;;;2.03;1.17;;;16.30;99.90;;;;;;4849130;29;20181;-91
2023/08/18 01:05:56;;;;;;;2.42;1.30;;;16.30;99.90;;;;;;4844542;29;20046;-89
2023/08/18 01:08:22;;;;;;;2.83;1.30;;;16.40;99.90;;;;;;4810880;29;20048;-93
2023/08/18 01:11:05;;;;;;;1.42;1.20;;;16.30;99.90;;;;;;4839534;29;20049;-93
2023/08/18 01:14:09;;;;;;;1.27;1.10;;;16.40;99.90;;;;;;4819535;29;20498;-93
2023/08/18 01:16:37;;;;;;;1.55;1.20;;;16.40;99.90;;;;;;4827812;29;20051;-93
2023/08/18 01:19:04;;;;;;;2.58;1.30;;;16.40;99.90;;;;;;4814021;29;20044;-94
2023/08/18 01:21:30;;;;;;;2.25;1.20;;;16.40;99.90;;;;;;4799250;29;20041;-92
2023/08/18 01:24:00;;;;;;;2.63;1.58;;;16.50;99.90;;;;;;4794917;29;20056;-94
2023/08/18 01:26:26;;;;;;;3.00;1.50;;;16.40;99.90;;;;;;4812300;29;20662;-95
2023/08/18 01:28:52;;;;;;;3.53;1.60;;;16.40;99.90;;;;;;4829020;29;20049;-90
2023/08/18 01:31:24;;;;;;;2.33;1.23;;;16.50;99.90;;;;;;4814534;29;20547;-93
2023/08/18 01:33:57;;;;;;;2.20;1.60;;;16.50;99.90;;;;;;4830205;29;20048;-95
2023/08/18 01:36:25;;;;;;;2.03;1.55;;;16.50;99.90;;;;;;4830043;29;20233;-94
2023/08/18 01:38:52;;;;;;;2.53;1.40;;;16.50;99.90;;;;;;4829539;29;20098;-91
2023/08/18 01:41:22;;;;;;;2.03;1.15;;;16.60;99.90;;;;;;4799735;29;20038;-91
2023/08/18 01:43:48;;;;;;;1.40;1.23;;;16.60;99.90;;;;;;4825217;29;20046;-93
2023/08/18 01:46:14;;;;;;;2.83;1.63;;;16.60;99.90;;;;;;4796439;29;20529;-94
2023/08/18 01:48:39;;;;;;;1.83;1.35;;;16.60;99.90;;;;;;4800146;29;20557;-92
2023/08/18 01:51:05;;;;;;;2.53;1.50;;;16.60;99.90;;;;;;4799701;29;20037;-91
2023/08/18 01:53:31;;;;;;;1.85;1.30;;;16.60;99.90;;;;;;4816705;29;20064;-92
2023/08/18 01:56:00;;;;;;;2.40;1.38;;;16.60;99.90;;;;;;4830059;29;20136;-93
2023/08/18 01:58:26;;;;;;;3.38;1.50;;;16.60;99.90;;;;;;4815857;29;20042;-92
2023/08/18 02:00:55;;;;;;;2.40;1.60;;;16.60;99.90;;;;;;4829451;29;20041;-93
2023/08/18 02:03:20;;;;;;;1.88;1.30;;;16.60;99.90;;;;;;4828692;29;20049;-93
2023/08/18 02:05:46;;;;;;;2.05;1.35;;;16.60;99.90;;;;;;4827226;29;20101;-95
2023/08/18 02:08:12;;;;;;;5.20;1.50;;;16.60;99.90;;;;;;4787279;29;20050;-94
2023/08/18 02:10:37;;;;;;;2.92;1.58;;;16.60;99.90;;;;;;4814259;29;20046;-89
2023/08/18 02:13:03;;;;;;;3.25;1.80;;;16.60;99.90;;;;;;4816532;29;20045;-88
2023/08/18 02:15:29;;;;;;;2.72;1.45;;;16.60;99.90;;;;;;4831947;29;20045;-94
2023/08/18 02:17:55;;;;;;;2.80;1.75;;;16.60;99.90;;;;;;4832022;29;20046;-91
2023/08/18 02:20:20;;;;;;;2.83;1.60;;;16.50;99.90;;;;;;4801826;29;20042;-88
2023/08/18 02:22:46;;;;;;;2.85;1.63;;;16.50;99.90;;;;;;4808839;29;20065;-88
2023/08/18 02:25:12;;;;;;;3.25;1.90;;;16.50;99.90;;;;;;4797097;29;20100;-90
2023/08/18 02:27:38;;;;;;;2.78;1.60;;;16.60;99.90;;;;;;4799694;29;20045;-89
2023/08/18 02:30:04;;;;;;;3.75;2.05;;;16.50;99.90;;;;;;4831579;29;20467;-90
2023/08/18 02:32:30;;;;;;;3.05;1.92;;;16.50;99.90;;;;;;4814515;29;20076;-94
2023/08/18 02:34:55;;;;;;;4.03;1.85;;;16.50;99.90;;;;;;4826757;29;20124;-89
2023/08/18 02:37:21;;;;;;;3.58;1.90;;;16.60;99.90;;;;;;4819548;29;20109;-89
2023/08/18 02:39:47;;;;;;;3.42;1.90;;;16.60;99.90;;;;;;4832334;29;20073;-91
2023/08/18 02:42:14;;;;;;;2.33;1.73;;;16.60;99.90;;;;;;4799576;29;20637;-85
2023/08/18 02:44:39;;;;;;;4.13;2.08;;;16.60;99.90;;;;;;4846470;29;20105;-91
2023/08/18 02:47:05;;;;;;;4.60;2.10;;;16.60;99.90;;;;;;4830968;29;20489;-89
2023/08/18 02:49:31;;;;;;;2.33;1.60;;;16.60;99.90;;;;;;4831887;29;20042;-95
2023/08/18 02:51:57;;;;;;;2.63;1.92;;;16.70;99.90;;;;;;4833699;29;20061;-88
2023/08/18 02:54:22;;;;;;;2.88;1.98;;;16.70;99.90;;;;;;4849273;29;20050;-90
2023/08/18 02:56:48;;;;;;;3.72;1.63;;;16.70;99.90;;;;;;4827911;29;20161;-86
2023/08/18 02:59:14;;;;;;;2.53;1.80;;;16.70;99.90;;;;;;4824718;29;20076;-82
2023/08/18 03:01:39;;;;;;;3.88;2.05;;;16.70;99.90;;;;;;4811119;29;20053;-82
2023/08/18 03:04:05;;;;;;;4.28;1.90;;;16.70;99.90;;;;;;4814057;29;20060;-84
2023/08/18 03:06:31;;;;;;;3.70;2.20;;;16.80;99.90;;;;;;4829446;29;20056;-93
2023/08/18 03:08:56;;;;;;;3.28;2.25;;;16.80;99.90;;;;;;4821030;29;20082;-83
2023/08/18 03:11:23;;;;;;;3.28;2.25;;;16.80;99.90;;;;;;4828822;29;20052;-91
2023/08/18 03:13:51;;;;;;;3.65;2.10;;;16.80;99.90;;;;;;4850698;29;20056;-92
2023/08/18 03:16:18;;;;;;;4.22;2.00;;;16.80;99.90;;;;;;4816414;29;20049;-92
2023/08/18 03:18:44;;;;;;;3.97;2.15;;;16.80;99.90;;;;;;4838198;29;20045;-93
2023/08/18 03:21:10;;;;;;;4.15;2.25;;;16.80;99.90;;;;;;4816207;29;20046;-86
2023/08/18 03:23:37;;;;;;;3.83;2.20;;;16.80;99.90;;;;;;4845036;29;20061;-94
2023/08/18 03:26:04;;;;;;;4.55;2.22;;;16.80;99.90;;;;;;4798841;29;20042;-95
2023/08/18 03:28:35;;;;;;;3.95;2.50;;;16.80;99.90;;;;;;4813792;29;20045;-91
2023/08/18 03:31:03;;;;;;;4.45;2.60;;;16.80;99.90;;;;;;4830663;29;20081;-93
2023/08/18 03:33:29;;;;;;;3.53;2.15;;;16.80;99.90;;;;;;4815976;29;20395;-84
2023/08/18 03:35:55;;;;;;;4.45;2.50;;;16.80;99.90;;;;;;4839204;29;20045;-86
2023/08/18 03:38:22;;;;;;;3.90;2.33;;;16.80;99.90;;;;;;4830649;29;20045;-88
2023/08/18 03:40:49;;;;;;;3.45;2.35;;;16.80;99.90;;;;;;4819094;29;20045;-92
2023/08/18 03:43:15;;;;;;;4.68;2.28;;;16.90;99.90;;;;;;4822878;29;20114;-93
2023/08/18 03:45:41;;;;;;;4.75;2.40;;;16.90;99.90;;;;;;4826116;29;20435;-83
2023/08/18 03:48:07;;;;;;;4.30;2.65;;;16.90;99.90;;;;;;4821581;29;20045;-86
2023/08/18 03:50:33;;;;;;;3.83;2.30;;;16.90;99.90;;;;;;4815142;29;20489;-91
2023/08/18 03:52:59;;;;;;;3.80;2.85;;;16.90;99.90;;;;;;4848475;29;20065;-86
2023/08/18 03:55:24;;;;;;;4.38;2.50;;;16.90;99.90;;;;;;4844905;29;20749;-88
2023/08/18 03:57:50;;;;;;;4.45;2.53;;;16.90;99.90;;;;;;4831126;29;20485;-90
2023/08/18 04:00:17;;;;;;;4.72;2.90;;;16.90;99.90;;;;;;4832706;29;20045;-78
2023/08/18 04:02:44;;;;;;;4.60;2.55;;;16.90;99.90;;;;;;4835447;29;20049;-93
2023/08/18 04:05:10;;;;;;;5.22;2.83;;;16.90;99.90;;;;;;4829773;29;20041;-93
2023/08/18 04:07:35;;;;;;;4.57;2.40;;;16.90;99.90;;;;;;4801616;29;20117;-91
2023/08/18 04:10:01;;;;;;;2.75;2.08;;;16.90;99.90;;;;;;4836039;29;20072;-84
2023/08/18 04:12:27;;;;;;;5.35;2.78;;;16.90;99.90;;;;;;4832063;29;20048;-89
2023/08/18 04:14:53;;;;;;;5.03;2.90;;;16.90;99.90;;;;;;4811266;29;20443;-91
2023/08/18 04:17:19;;;;;;;4.20;2.42;;;16.90;99.90;;;;;;4831394;29;20436;-85
2023/08/18 04:19:44;;;;;;;6.68;2.55;;;16.90;99.90;;;;;;4837162;29;20038;-87
2023/08/18 04:22:10;;;;;;;5.18;2.53;;;16.90;99.90;;;;;;4824388;29;20068;-82
2023/08/18 04:24:36;;;;;;;7.40;2.35;;;16.90;99.90;;;;;;4812880;29;20109;-86
2023/08/18 04:27:02;;;;;;;3.75;2.30;;;16.90;99.90;;;;;;4807334;29;20048;-88
2023/08/18 04:29:28;;;;;;;5.53;2.40;;;16.90;99.90;;;;;;4828302;29;20052;-89
2023/08/18 04:31:54;;;;;;;4.40;2.50;;;16.90;99.90;;;;;;4843002;29;20052;-81
2023/08/18 04:34:20;;;;;;;3.50;2.40;;;16.90;99.90;;;;;;4840310;29;20057;-88
2023/08/18 04:36:45;;;;;;;4.72;2.50;;;17.00;99.90;;;;;;4852531;29;20045;-86
2023/08/18 04:39:11;;;;;;;3.83;2.53;;;17.00;99.90;;;;;;4835298;29;20048;-84
2023/08/18 04:41:37;;;;;;;4.75;2.80;;;17.00;99.90;;;;;;4825853;29;20405;-95
2023/08/18 04:44:04;;;;;;;3.58;2.40;;;17.00;99.90;;;;;;4844931;29;20045;-84
2023/08/18 04:46:30;;;;;;;5.07;2.27;;;17.00;99.90;;;;;;4843818;29;20506;-88
2023/08/18 04:48:56;;;;;;;5.00;2.42;;;17.00;99.90;;;;;;4798632;29;20685;-92
2023/08/18 04:51:22;;;;;;;3.47;2.40;;;17.00;99.90;;;;;;4811922;29;20128;-93
2023/08/18 04:53:48;;;;;;;5.32;2.42;;;17.00;99.90;;;;;;4837906;29;20067;-94
2023/08/18 04:56:15;;;;;;;3.80;2.42;;;17.00;99.90;;;;;;4838721;29;20133;-95
2023/08/18 04:58:41;;;;;;;5.18;2.38;;;17.00;99.90;;;;;;4826869;29;20102;-86
2023/08/18 05:01:07;;;;;;;3.60;2.20;;;17.00;99.90;;;;;;4825708;29;20125;-87
2023/08/18 05:03:33;;;;;;;4.75;2.30;;;17.00;99.90;;;;;;4844254;29;20106;-90
2023/08/18 05:06:07;;;;;;;5.38;2.70;;;17.00;99.90;;;;;;4814469;29;20045;-94
2023/08/18 05:08:34;;;;;;;3.63;2.28;;;17.00;99.90;;;;;;4831979;29;20101;-94
2023/08/18 05:11:08;;;;;;;3.75;2.10;;;17.00;99.90;;;;;;4838858;29;20073;-92
2023/08/18 05:13:36;;;;;;;4.65;2.38;;;17.00;99.90;;;;;;4829587;29;20049;-93
2023/08/18 05:16:03;;;;;;;;;;;17.00;99.90;;;;;;4833522;29;20052;-86
2023/08/18 05:18:30;;;;;;;2.85;2.05;;;16.90;99.90;;;;;;4833018;29;19920;-96
2023/08/18 05:20:57;;;;;;;4.90;2.60;;;17.00;99.90;;;;;;4818882;29;20045;-92
2023/08/18 05:23:24;;;;;;;4.65;2.30;;;17.00;99.90;;;;;;4807219;29;20046;-87
2023/08/18 05:25:54;;;;;;;5.50;2.72;;;17.00;99.90;;;;;;4828526;29;20512;-85
2023/08/18 05:28:20;;;;;;;3.85;2.60;;;17.00;99.90;;;;;;4846415;29;20060;-88
2023/08/18 05:30:47;;;;;;;5.43;2.47;;;17.00;99.90;;;;;;4816120;29;20046;-93
2023/08/18 05:33:13;;;;;;;3.50;2.10;;;17.00;99.90;;;;;;4850787;29;20057;-84
2023/08/18 05:35:39;;;;;;;4.40;2.20;;;17.00;99.90;;;;;;4805028;29;20051;-95
2023/08/18 05:38:10;;;;;;;3.67;2.30;;;17.10;99.90;;;;;;4844104;29;20093;-85
2023/08/18 05:40:43;;;;;;;4.88;2.80;;;17.10;99.90;;;;;;4834928;29;20105;-94
2023/08/18 05:43:10;;;;;;;3.72;2.25;;;17.10;99.90;;;;;;4833151;29;20116;-83
2023/08/18 05:45:36;;;;;;;2.80;2.03;;;17.10;99.90;;;;;;4847760;29;20397;-84
2023/08/18 05:48:04;;;;;;;5.43;2.53;;;17.10;99.90;;;;;;4826500;29;20045;-86
2023/08/18 05:50:30;;;;;;;5.10;2.45;;;17.10;99.90;;;;;;4832733;29;21105;-93
2023/08/18 05:52:56;;;;;;;4.70;2.50;;;17.00;99.90;;;;;;4833281;29;20938;-87
2023/08/18 05:55:23;;;;;;;3.33;2.47;;;17.10;99.90;;;;;;4836343;29;20510;-86
2023/08/18 05:57:49;;;;;;;4.82;2.30;;;17.00;99.90;;;;;;4836651;29;20803;-87
2023/08/18 06:00:15;;;;;;;4.32;2.20;;;17.00;99.90;;;;;;4837758;29;20044;-96
2023/08/18 06:02:42;;;;;;;4.22;2.60;;;17.00;99.90;;;;;;4844150;29;20572;-84
2023/08/18 06:05:10;;;;;;;;;;;17.10;99.90;;;;;;4815040;29;20129;-86
2023/08/18 06:07:36;;;;;;;6.03;2.65;;;17.10;99.90;;;;;;4843464;29;20005;-89
2023/08/18 06:10:03;;;;;;;4.03;2.55;;;17.10;99.90;;;;;;4830526;29;20056;-92
2023/08/18 06:12:29;;;;;;;3.40;2.33;;;17.10;99.90;;;;;;4830699;29;20124;-83
2023/08/18 06:14:54;;;;;;;4.82;2.63;;;17.10;99.90;;;;;;4844275;29;20128;-88
2023/08/18 06:17:21;;;;;;;4.68;2.45;;;17.10;99.90;;;;;;4837248;29;20064;-87
2023/08/18 06:19:47;;;;;;;4.68;3.10;;;17.20;99.90;;;;;;4797918;29;20077;-93
2023/08/18 06:22:13;;;;;;;4.07;2.65;;;17.20;99.90;;;;;;4814516;29;20064;-86
2023/08/18 06:24:39;;;;;;;5.18;2.78;;;17.20;99.90;;;;;;4830271;29;20077;-90
2023/08/18 06:27:05;;;;;;;4.25;2.70;;;17.20;99.90;;;;;;4804223;29;20076;-84
2023/08/18 06:29:31;;;;;;;4.70;2.85;;;17.30;99.90;;;;;;4832934;29;20485;-89
2023/08/18 06:31:56;;;;;;;5.78;3.10;;;17.30;99.90;;;;;;4843181;29;20048;-83
2023/08/18 06:34:22;;;;;;;7.70;2.83;;;17.30;99.90;;;;;;4818995;29;20132;-87
2023/08/18 06:36:48;;;;;;;5.85;3.15;;;17.30;99.90;;;;;;4811299;29;20033;-83
2023/08/18 06:39:15;;;;;;;4.07;2.60;;;17.40;99.90;;;;;;4814295;29;20057;-86
2023/08/18 06:41:42;;;;;;;6.47;2.83;;;17.40;99.90;;;;;;4849552;29;20038;-82
2023/08/18 06:44:08;;;;;;;4.20;3.40;;;17.40;99.90;;;;;;4843529;29;20490;-81
2023/08/18 06:46:34;;;;;;;6.25;3.20;;;17.40;99.90;;;;;;4831236;29;20041;-82
2023/08/18 06:49:01;;;;;;;4.15;3.10;;;17.40;99.90;;;;;;4833749;29;20045;-91
2023/08/18 06:51:27;;;;;;;5.53;4.07;;;17.40;99.90;;;;;;4831857;29;20049;-84
2023/08/18 06:53:53;;;;;;;6.80;3.33;;;17.40;99.90;;;;;;4819685;29;20049;-90
2023/08/18 06:56:19;;;;;;;4.68;3.42;;;17.40;99.90;;;;;;4814787;29;20516;-90
2023/08/18 06:58:44;;;;;;;4.30;3.30;;;17.40;99.90;;;;;;4821516;29;20073;-88
2023/08/18 07:01:10;;;;;;;6.57;3.70;;;17.50;99.90;;;;;;4812393;29;20090;-89
2023/08/18 07:03:36;;;;;;;6.50;3.85;;;17.50;99.90;;;;;;4817654;29;20053;-87
2023/08/18 07:06:02;;;;;;;8.02;3.80;;;17.50;99.90;;;;;;4811966;29;20576;-92
2023/08/18 07:08:28;;;;;;;4.78;3.80;;;17.50;99.90;;;;;;4825995;29;20072;-88
2023/08/18 07:10:54;;;;;;;6.45;4.63;;;17.50;99.90;;;;;;4828763;29;20584;-95
2023/08/18 07:13:21;;;;;;;5.47;4.00;;;17.50;99.90;;;;;;4830236;29;20244;-87
2023/08/18 07:15:48;;;;;;;7.07;3.80;;;17.50;99.90;;;;;;4829775;29;20121;-86
2023/08/18 07:18:13;;;;;;;5.68;3.83;;;17.60;99.90;;;;;;4837029;29;20044;-88
2023/08/18 07:20:42;;;;;;;7.20;3.88;;;17.60;99.90;;;;;;4838607;29;20041;-88
2023/08/18 07:23:08;;;;;;;7.53;3.75;;;17.60;99.90;;;;;;4844742;29;20041;-87
2023/08/18 07:25:34;;;;;;;7.90;4.30;;;17.50;99.90;;;;;;4844801;29;20090;-86
2023/08/18 07:28:00;;;;;;;6.68;4.15;;;17.60;99.90;;;;;;4830676;29;20077;-87
2023/08/18 07:30:26;;;;;;;5.07;3.95;;;17.60;99.90;;;;;;4816386;29;20049;-88
2023/08/18 07:32:54;;;;;;;7.33;4.17;;;17.60;99.90;;;;;;4830691;29;20163;-90
2023/08/18 07:35:20;;;;;;;6.53;4.70;;;17.70;99.90;;;;;;4799765;29;20042;-91
2023/08/18 07:37:46;;;;;;;4.88;4.18;;;17.70;99.90;;;;;;4835593;29;20049;-85
2023/08/18 07:40:12;;;;;;;5.47;3.70;;;17.70;99.90;;;;;;4829736;29;20041;-88
2023/08/18 07:42:38;;;;;;;6.38;4.25;;;17.70;99.90;;;;;;4837409;29;20037;-88
2023/08/18 07:45:05;;;;;;;7.60;4.90;;;17.70;99.90;;;;;;4827358;29;20050;-88
2023/08/18 07:47:31;;;;;;;7.40;4.75;;;17.70;99.90;;;;;;4811037;29;20132;-89
2023/08/18 07:49:57;;;;;;;9.20;4.80;;;17.70;99.90;;;;;;4829045;29;20125;-86
2023/08/18 07:52:23;;;;;;;6.47;4.55;;;17.70;99.90;;;;;;4814106;29;20050;-87
2023/08/18 07:54:50;;;;;;;8.10;5.05;;;17.80;99.90;;;;;;4844133;29;20451;-86
2023/08/18 07:57:16;;;;;;;9.30;4.47;;;17.80;99.90;;;;;;4797318;29;20050;-89
2023/08/18 07:59:42;;;;;;;9.40;4.10;;;17.80;99.90;;;;;;4829535;29;20517;-85
2023/08/18 08:02:08;;;;;;;9.60;4.63;;;17.90;99.90;;;;;;4834839;29;20079;-89
2023/08/18 08:04:33;;;;;;;8.90;4.88;;;17.90;99.90;;;;;;4836202;29;20212;-83
2023/08/18 08:06:59;;;;;;;6.40;3.92;;;17.90;99.90;;;;;;4850928;29;20465;-87
2023/08/18 08:09:25;;;;;;;6.07;3.83;;;17.90;99.90;;;;;;4830737;29;20329;-83
2023/08/18 08:11:52;;;;;;;7.20;3.78;;;18.00;99.90;;;;;;4845233;29;20056;-86
2023/08/18 08:14:22;;;;;;;5.45;3.92;;;18.00;99.90;;;;;;4834000;29;20113;-84
2023/08/18 08:16:48;;;;;;;6.38;3.83;;;18.00;99.90;;;;;;4834086;29;20050;-80
2023/08/18 08:19:14;;;;;;;8.57;3.80;;;18.10;99.90;;;;;;4846886;29;20044;-87
2023/08/18 08:21:43;;;;;;;10.15;3.60;;;18.10;99.90;;;;;;4850353;29;20082;-86
2023/08/18 08:24:08;;;;;;;8.10;3.70;;;18.20;99.90;;;;;;4844194;29;20046;-82
2023/08/18 08:26:34;;;;;;;5.30;3.17;;;18.30;99.90;;;;;;4848873;29;20068;-83
2023/08/18 08:29:01;;;;;;;5.22;3.00;;;18.30;99.90;;;;;;4798845;29;20088;-89
2023/08/18 08:31:26;;;;;;;8.90;3.17;;;18.40;99.90;;;;;;4835719;29;20052;-90
2023/08/18 08:33:52;;;;;;;5.40;3.72;;;18.40;99.90;;;;;;4806997;29;20042;-89
2023/08/18 08:36:18;;;;;;;8.00;3.47;;;18.50;99.90;;;;;;4847136;29;20045;-86
2023/08/18 08:38:43;;;;;;;6.43;2.95;;;18.60;99.90;;;;;;4820920;29;20042;-86
2023/08/18 08:41:10;;;;;;;5.82;3.13;;;18.70;99.90;;;;;;4828220;29;20144;-83
2023/08/18 08:43:36;;;;;;;8.30;3.67;;;18.70;99.90;;;;;;4832636;29;20045;-89
2023/08/18 08:46:02;;;;;;;6.22;3.13;;;18.80;99.90;;;;;;4818739;29;20524;-83
2023/08/18 08:48:47;;;;;;;4.63;2.67;;;18.80;99.90;;;;;;4843324;29;20046;-84
2023/08/18 08:51:15;;;;;;;5.45;2.92;;;18.80;99.90;;;;;;4829765;29;20515;-90
2023/08/18 08:53:49;;;;;;;4.20;2.60;;;18.80;99.90;;;;;;4824568;29;20060;-86
2023/08/18 08:56:17;;;;;;;4.50;2.63;;;18.80;99.90;;;;;;4839106;29;20054;-86
2023/08/18 08:58:44;;;;;;;5.70;2.40;;;18.90;99.90;;;;;;4841699;29;20045;-86
2023/08/18 09:01:10;;;;;;;5.15;2.35;;;19.00;99.90;;;;;;4837343;29;20052;-79
2023/08/18 09:03:36;;;;;;;4.85;2.50;;;19.10;99.90;;;;;;4817726;29;20041;-85
2023/08/18 09:06:02;;;;;;;4.00;2.75;;;19.10;99.90;;;;;;4829370;29;20187;-84
2023/08/18 09:08:27;;;;;;;3.67;2.83;;;19.20;99.90;;;;;;4828421;29;20053;-85
2023/08/18 09:10:54;;;;;;;5.43;3.05;;;19.20;99.90;;;;;;4827665;29;20493;-85
2023/08/18 09:13:20;;;;;;;4.10;3.35;;;19.10;99.90;;;;;;4832509;29;20052;-85
2023/08/18 09:15:47;;;;;;;6.70;3.30;;;19.10;99.90;;;;;;4847805;29;20452;-87
2023/08/18 09:18:14;;;;;;;5.20;3.28;;;19.10;99.90;;;;;;4814081;29;20049;-90
2023/08/18 09:20:44;;;;;;;3.58;2.72;;;19.20;99.90;;;;;;4835124;29;20041;-83
2023/08/18 09:23:10;;;;;;;4.10;2.65;;;19.20;99.90;;;;;;4846384;29;20048;-82
2023/08/18 09:25:37;;;;;;;5.25;2.88;;;19.20;99.90;;;;;;4861608;29;20101;-83
2023/08/18 09:28:04;;;;;;;4.65;2.90;;;19.30;99.90;;;;;;4838293;29;20085;-80
2023/08/18 09:30:33;;;;;;;4.10;3.00;;;19.40;99.90;;;;;;4846890;29;20077;-87
2023/08/18 09:33:03;;;;;;;2.85;2.20;;;19.40;99.90;;;;;;4829910;29;20048;-85
2023/08/18 09:35:36;;;;;;;4.85;2.80;;;19.40;99.90;;;;;;4846179;29;20189;-83
2023/08/18 09:38:02;;;;;;;3.03;2.70;;;19.40;99.90;;;;;;4846529;29;20041;-85
2023/08/18 09:40:29;;;;;;;4.10;3.28;;;19.40;99.90;;;;;;4818156;29;20051;-87
2023/08/18 09:42:55;;;;;;;4.43;3.33;;;19.40;99.90;;;;;;4834727;29;20478;-81
2023/08/18 09:45:24;;;;;;;6.32;3.53;;;19.40;99.90;;;;;;4834359;29;20428;-82
2023/08/18 09:47:57;;;;;;;6.43;3.08;;;19.50;99.90;;;;;;4865055;29;20048;-92
2023/08/18 09:50:29;;;;;;;5.15;3.20;;;19.60;99.90;;;;;;4845413;29;20430;-80
2023/08/18 09:52:58;;;;;;;5.97;3.80;;;19.70;99.90;;;;;;4812618;29;20062;-83
2023/08/18 09:55:37;;;;;;;5.82;3.03;;;19.80;99.90;;;;;;4812700;29;20046;-88
2023/08/18 09:58:08;;;;;;;5.40;3.10;;;19.80;99.90;;;;;;4821744;29;20042;-84
2023/08/18 10:00:41;;;;;;;4.57;3.47;;;19.90;99.90;;;;;;4831139;29;20048;-83
2023/08/18 10:03:08;;;;;;;7.00;4.03;;;19.90;99.90;;;;;;4824867;29;20048;-90
2023/08/18 10:05:34;;;;;;;6.53;4.30;;;19.90;99.90;;;;;;4822085;29;20062;-89
2023/08/18 10:08:02;;;;;;;6.40;3.95;;;20.00;99.90;;;;;;4814298;29;20122;-85
2023/08/18 10:10:28;;;;;;;5.32;3.90;;;20.10;99.90;;;;;;4813679;29;20042;-87
2023/08/18 10:12:55;;;;;;;6.65;3.63;;;20.20;99.90;;;;;;4800574;29;20132;-83
2023/08/18 10:15:22;;;;;;;5.97;3.50;;;20.50;99.90;;;;;;4812387;29;20046;-88
2023/08/18 10:17:47;;;;;;;5.13;3.58;;;20.60;99.90;;;;;;4796227;29;20077;-89
2023/08/18 10:20:13;;;;;;;4.40;3.70;;;20.80;99.90;;;;;;4819398;29;20125;-88
2023/08/18 10:22:41;;;;;;;6.88;3.55;;;20.90;99.90;;;;;;4799034;29;20881;-85
2023/08/18 10:25:08;;;;;;;4.60;3.70;;;20.90;99.90;;;;;;4811339;29;20050;-93
2023/08/18 10:27:40;;;;;;;4.85;3.72;;;20.80;99.90;;;;;;4802763;29;20125;-86
2023/08/18 10:30:10;;;;;;;4.40;3.97;;;20.70;99.90;;;;;;4827919;29;20049;-85
2023/08/18 10:32:36;;;;;;;6.22;4.03;;;20.80;99.90;;;;;;4816011;29;20452;-84
2023/08/18 10:35:25;;;;;;;4.43;4.00;;;20.80;99.90;;;;;;4824357;29;20085;-89
2023/08/18 10:37:56;;;;;;;5.00;3.88;;;20.70;99.90;;;;;;4828950;29;20080;-83
2023/08/18 10:40:26;;;;;;;4.82;3.90;;;20.70;99.90;;;;;;4810193;29;20042;-88
2023/08/18 10:42:57;;;;;;;5.50;3.97;;;20.70;99.90;;;;;;4806644;29;20037;-88
2023/08/18 10:45:28;;;;;;;5.28;4.00;;;20.80;99.90;;;;;;4826988;29;20078;-88
2023/08/18 10:47:57;;;;;;;4.72;3.72;;;20.80;99.90;;;;;;4812170;29;20071;-85
2023/08/18 10:50:24;;;;;;;6.25;3.90;;;20.80;99.90;;;;;;4797473;29;20129;-88
2023/08/18 10:52:56;;;;;;;4.95;3.63;;;20.80;99.90;;;;;;4832142;29;20054;-86
2023/08/18 10:55:25;;;;;;;6.50;4.20;;;20.80;99.90;;;;;;4820454;29;20639;-86
2023/08/18 10:57:52;;;;;;;5.65;3.55;;;20.90;99.90;;;;;;4827397;29;20094;-85
2023/08/18 11:00:19;;;;;;;4.80;3.85;;;20.90;99.90;;;;;;4845586;29;20094;-86
2023/08/18 11:02:45;;;;;;;;;;;20.90;99.90;;;;;;4807806;29;20099;-87
2023/08/18 11:05:11;;;;;;;5.22;3.72;;;21.00;99.90;;;;;;4830078;29;20435;-89
2023/08/18 11:07:37;;;;;;;4.32;3.90;;;21.00;99.90;;;;;;4825945;29;20136;-82
2023/08/18 11:10:16;;;;;;;4.80;3.92;;;21.00;99.90;;;;;;4810710;29;20034;-86
2023/08/18 11:12:43;;;;;;;4.35;3.45;;;21.10;99.90;;;;;;4839197;29;20452;-89
2023/08/18 11:15:09;;;;;;;4.38;3.42;;;21.50;99.90;;;;;;4828782;29;20044;-89
2023/08/18 11:17:34;;;;;;;4.70;3.17;;;21.80;99.90;;;;;;4826898;29;20046;-88
2023/08/18 11:20:00;;;;;;;4.43;3.70;;;21.90;99.90;;;;;;4844878;29;20110;-86
2023/08/18 11:22:28;;;;;;;4.50;3.85;;;21.90;99.90;;;;;;4813092;29;20808;-88
2023/08/18 11:24:54;;;;;;;5.57;3.83;;;21.80;99.90;;;;;;4842701;29;20706;-88
2023/08/18 11:27:20;;;;;;;3.65;3.15;;;21.80;99.90;;;;;;4814669;29;20041;-86
2023/08/18 11:29:46;;;;;;;6.18;3.75;;;21.80;99.90;;;;;;4811540;29;20517;-88
2023/08/18 11:32:12;;;;;;;4.45;3.65;;;21.80;99.90;;;;;;4825088;29;20093;-84
2023/08/18 11:34:38;;;;;;;8.23;3.63;;;21.90;99.90;;;;;;4846561;29;20128;-89
2023/08/18 11:37:10;;;;;;;4.57;3.15;;;21.90;99.90;;;;;;4829120;29;20047;-85
2023/08/18 11:39:37;;;;;;;4.65;3.88;;;21.90;99.90;;;;;;4810984;29;20076;-87
2023/08/18 11:42:04;;;;;;;3.63;3.30;;;21.90;99.90;;;;;;4818161;29;20050;-87
2023/08/18 11:44:33;;;;;;;3.80;3.20;;;21.90;99.90;;;;;;4835939;29;20795;-88
2023/08/18 11:47:00;;;;;;;4.20;3.60;;;21.90;99.90;;;;;;4846679;29;20105;-83
2023/08/18 11:49:26;;;;;;;4.07;3.67;;;21.90;99.90;;;;;;4830337;29;20053;-89
2023/08/18 11:52:06;;;;;;;3.95;3.50;;;22.00;99.90;;;;;;4814623;29;20053;-87
2023/08/18 11:54:34;;;;;;;4.50;4.10;;;22.10;99.90;;;;;;4842117;29;20145;-87
2023/08/18 11:57:13;;;;;;;6.88;3.70;;;22.10;99.90;;;;;;4849239;29;20049;-92
2023/08/18 11:59:46;;;;;;;7.25;4.18;;;22.10;99.90;;;;;;4831345;29;20073;-84
2023/08/18 12:02:20;;;;;;;5.50;4.15;;;22.10;99.90;;;;;;4843578;29;20052;-87
2023/08/18 12:04:46;;;;;;;4.05;3.65;;;22.10;99.90;;;;;;4844521;29;20046;-85
2023/08/18 12:07:12;;;;;;;4.40;3.97;;;22.20;99.90;;;;;;4837365;29;20408;-88
2023/08/18 12:09:38;;;;;;;5.90;4.25;;;22.20;99.90;;;;;;4838506;29;20045;-84
2023/08/18 12:12:13;;;;;;;5.10;4.57;;;22.30;99.90;;;;;;4846429;29;20052;-84
2023/08/18 12:14:38;;;;;;;4.03;3.63;;;22.40;99.90;;;;;;4831629;29;20061;-86
2023/08/18 12:17:04;;;;;;;6.32;4.28;;;22.50;99.90;;;;;;4833002;29;20548;-86
2023/08/18 12:19:31;;;;;;;5.65;3.65;;;22.60;99.90;;;;;;4797758;29;20121;-88
2023/08/18 12:21:57;;;;;;;4.75;4.25;;;22.90;99.90;;;;;;4827387;29;20048;-85
2023/08/18 12:24:22;;;;;;;4.83;4.40;;;22.80;99.90;;;;;;4813235;29;20034;-88
2023/08/18 12:26:48;;;;;;;5.60;5.10;;;22.80;99.90;;;;;;4841864;29;20048;-88
2023/08/18 12:29:14;;;;;;;5.80;4.87;;;22.70;99.90;;;;;;4816694;29;20458;-86
2023/08/18 12:31:40;;;;;;;6.13;4.07;;;22.70;99.90;;;;;;4819290;29;20084;-88
2023/08/18 12:34:05;;;;;;;6.80;5.00;;;22.80;99.90;;;;;;4827558;29;20049;-89
2023/08/18 12:36:33;;;;;;;7.07;4.97;;;22.80;99.90;;;;;;4830851;29;20037;-84
2023/08/18 12:38:59;;;;;;;6.50;5.45;;;22.80;99.90;;;;;;4834090;29;20041;-87
2023/08/18 12:41:27;;;;;;;6.10;5.50;;;22.80;99.90;;;;;;4853422;29;20038;-84
2023/08/18 12:43:53;;;;;;;6.70;5.45;;;22.80;99.90;;;;;;4826933;29;20049;-85
2023/08/18 12:46:19;;;;;;;6.97;5.85;;;22.90;99.90;;;;;;4845303;29;20101;-81